createdAt,value
2018-04-14T00:00:28.017Z,13.30
2018-04-14T00:03:30.092Z,13.20
2018-04-14T00:06:31.430Z,13.20
2018-04-14T00:09:32.790Z,13.00
2018-04-14T00:12:34.082Z,13.10
2018-04-14T00:15:35.430Z,13.10
2018-04-14T00:18:36.875Z,13.10
2018-04-14T00:21:38.898Z,13.10
2018-04-14T00:24:40.211Z,13.00
2018-04-14T00:27:41.602Z,13.00
2018-04-14T00:30:42.910Z,12.90
2018-04-14T00:33:44.168Z,13.10
2018-04-14T00:36:45.473Z,12.90
2018-04-14T00:39:47.502Z,13.10
2018-04-14T00:42:48.827Z,13.10
2018-04-14T00:45:50.960Z,13.00
2018-04-14T00:48:52.478Z,13.10
2018-04-14T00:51:53.748Z,13.10
2018-04-14T00:54:55.831Z,13.00
2018-04-14T00:57:57.919Z,13.00
2018-04-14T01:01:00.009Z,13.10
2018-04-14T01:04:01.347Z,13.20
2018-04-14T01:07:03.455Z,13.10
2018-04-14T01:10:04.825Z,12.90
2018-04-14T01:13:06.179Z,13.20
2018-04-14T01:16:07.497Z,13.10
2018-04-14T01:19:08.810Z,12.90
2018-04-14T01:22:10.117Z,12.90
2018-04-14T01:25:11.431Z,13.20
2018-04-14T01:28:13.496Z,13.10
2018-04-14T01:31:14.794Z,13.00
2018-04-14T01:34:16.066Z,13.00
2018-04-14T01:37:17.358Z,13.10
2018-04-14T01:40:18.840Z,13.00
2018-04-14T01:43:20.198Z,13.20
2018-04-14T01:46:21.556Z,13.20
2018-04-14T01:49:22.889Z,13.10
2018-04-14T01:52:24.323Z,13.10
2018-04-14T01:55:26.410Z,13.00
2018-04-14T01:58:28.649Z,13.10
2018-04-14T02:01:29.957Z,13.00
2018-04-14T02:04:31.290Z,13.10
2018-04-14T02:07:32.605Z,13.10
2018-04-14T02:10:33.924Z,13.10
2018-04-14T02:13:35.306Z,13.30
2018-04-14T02:16:36.659Z,13.10
2018-04-14T02:19:37.997Z,13.10
2018-04-14T02:22:39.361Z,13.10
2018-04-14T02:25:40.695Z,13.00
2018-04-14T02:28:42.755Z,12.90
2018-04-14T02:31:44.079Z,12.90
2018-04-14T02:34:46.132Z,12.90
2018-04-14T02:37:47.404Z,12.90
2018-04-14T02:43:56.834Z,12.90
2018-04-14T02:46:58.133Z,12.90
2018-04-14T02:50:00.215Z,12.80
2018-04-14T02:53:02.277Z,12.70
2018-04-14T02:56:03.654Z,12.70
2018-04-14T02:59:05.717Z,12.70
2018-04-14T03:02:07.136Z,12.80
2018-04-14T03:05:08.505Z,12.70
2018-04-14T03:08:09.841Z,12.60
2018-04-14T03:11:11.928Z,12.70
2018-04-14T03:14:13.971Z,12.70
2018-04-14T03:17:15.255Z,12.70
2018-04-14T03:20:16.572Z,12.70
2018-04-14T03:23:17.886Z,12.80
2018-04-14T03:26:19.351Z,12.80
2018-04-14T03:29:20.652Z,12.80
2018-04-14T03:32:22.072Z,12.80
2018-04-14T03:35:23.422Z,12.70
2018-04-14T03:38:24.841Z,12.70
2018-04-14T03:41:26.202Z,12.70
2018-04-14T03:44:28.382Z,12.60
2018-04-14T03:47:30.062Z,12.70
2018-04-14T03:50:32.112Z,12.60
2018-04-14T03:53:33.434Z,12.60
2018-04-14T03:56:34.728Z,12.40
2018-04-14T03:59:36.058Z,12.60
2018-04-14T04:02:37.403Z,12.40
2018-04-14T04:05:38.760Z,12.40
2018-04-14T04:08:40.858Z,12.40
2018-04-14T04:11:42.172Z,12.30
2018-04-14T04:14:43.455Z,12.40
2018-04-14T04:17:44.759Z,12.40
2018-04-14T04:21:04.479Z,12.30
2018-04-14T04:24:24.564Z,12.30
2018-04-14T04:27:25.895Z,12.20
2018-04-14T04:30:27.968Z,12.10
2018-04-14T04:33:29.276Z,12.20
2018-04-14T04:36:30.595Z,12.10
2018-04-14T04:39:31.967Z,12.20
2018-04-14T04:42:34.026Z,12.10
2018-04-14T04:45:35.456Z,12.10
2018-04-14T04:48:36.776Z,12.20
2018-04-14T04:51:38.084Z,12.20
2018-04-14T04:54:39.409Z,12.30
2018-04-14T04:57:41.498Z,12.30
2018-04-14T05:00:43.608Z,12.30
2018-04-14T05:03:44.884Z,12.40
2018-04-14T05:06:46.225Z,12.20
2018-04-14T05:09:48.281Z,12.10
2018-04-14T05:12:49.720Z,12.00
2018-04-14T05:15:51.339Z,12.00
2018-04-14T05:18:53.410Z,12.20
2018-04-14T05:21:54.723Z,11.90
2018-04-14T05:24:56.039Z,12.20
2018-04-14T05:27:57.543Z,12.30
2018-04-14T05:30:58.870Z,12.30
2018-04-14T05:34:00.182Z,12.30
2018-04-14T05:37:01.531Z,12.30
2018-04-14T05:40:02.892Z,12.40
2018-04-14T05:43:04.285Z,12.40
2018-04-14T05:46:05.657Z,12.40
2018-04-14T05:49:07.061Z,12.30
2018-04-14T05:55:16.483Z,12.60
2018-04-14T05:58:17.779Z,12.60
2018-04-14T06:01:19.107Z,12.70
2018-04-14T06:04:20.428Z,12.80
2018-04-14T06:07:21.749Z,12.80
2018-04-14T06:10:23.088Z,13.00
2018-04-14T06:13:25.190Z,12.80
2018-04-14T06:16:26.527Z,12.70
2018-04-14T06:19:27.880Z,12.70
2018-04-14T06:22:29.250Z,12.70
2018-04-14T06:25:30.622Z,12.50
2018-04-14T06:28:31.986Z,12.80
2018-04-14T06:31:33.281Z,12.60
2018-04-14T06:34:34.646Z,12.70
2018-04-14T06:37:35.982Z,12.80
2018-04-14T06:40:38.100Z,12.90
2018-04-14T06:43:39.453Z,12.80
2018-04-14T06:46:40.795Z,13.00
2018-04-14T06:49:42.179Z,12.80
2018-04-14T06:52:44.269Z,12.80
2018-04-14T06:55:45.588Z,12.70
2018-04-14T06:58:46.879Z,12.90
2018-04-14T07:01:48.942Z,12.80
2018-04-14T07:04:50.316Z,12.80
2018-04-14T07:07:51.641Z,12.70
2018-04-14T07:10:52.984Z,12.60
2018-04-14T07:13:54.334Z,12.80
2018-04-14T07:16:56.448Z,13.10
2018-04-14T07:19:57.803Z,13.10
2018-04-14T07:22:59.147Z,13.00
2018-04-14T07:26:01.208Z,13.30
2018-04-14T07:29:02.520Z,13.10
2018-04-14T07:32:03.887Z,13.10
2018-04-14T07:35:05.229Z,13.00
2018-04-14T07:38:07.306Z,13.00
2018-04-14T07:41:09.440Z,13.10
2018-04-14T07:44:10.786Z,13.00
2018-04-14T07:47:12.158Z,13.20
2018-04-14T07:50:13.544Z,12.90
2018-04-14T07:53:14.913Z,13.10
2018-04-14T07:56:16.255Z,13.20
2018-04-14T07:59:17.634Z,13.30
2018-04-14T08:02:18.979Z,13.50
2018-04-14T08:05:20.340Z,13.60
2018-04-14T08:08:21.704Z,13.80
2018-04-14T08:11:23.078Z,13.60
2018-04-14T08:14:24.427Z,13.60
2018-04-14T08:17:25.800Z,13.80
2018-04-14T08:20:27.162Z,13.90
2018-04-14T08:23:28.529Z,14.00
2018-04-14T08:26:29.904Z,13.90
2018-04-14T08:29:31.234Z,14.10
2018-04-14T08:32:33.314Z,14.20
2018-04-14T08:35:35.409Z,14.30
2018-04-14T08:38:37.554Z,14.30
2018-04-14T08:41:38.922Z,14.20
2018-04-14T08:44:40.347Z,14.00
2018-04-14T08:47:41.718Z,14.20
2018-04-14T08:50:43.097Z,14.30
2018-04-14T08:53:44.539Z,14.40
2018-04-14T08:56:45.908Z,14.50
2018-04-14T08:59:47.249Z,14.40
2018-04-14T09:02:49.311Z,14.30
2018-04-14T09:05:50.659Z,14.30
2018-04-14T09:08:51.983Z,14.50
2018-04-14T09:11:53.400Z,14.30
2018-04-14T09:14:54.731Z,14.30
2018-04-14T09:17:56.099Z,14.40
2018-04-14T09:20:57.462Z,14.40
2018-04-14T09:23:58.790Z,14.40
2018-04-14T09:27:00.915Z,14.60
2018-04-14T09:30:02.310Z,14.60
2018-04-14T09:33:03.658Z,14.90
2018-04-14T09:36:05.058Z,14.90
2018-04-14T09:39:07.177Z,15.30
2018-04-14T09:42:08.607Z,15.30
2018-04-14T09:45:10.025Z,15.20
2018-04-14T09:48:18.398Z,15.40
2018-04-14T09:51:19.742Z,15.20
2018-04-14T09:54:21.847Z,15.10
2018-04-14T09:57:23.203Z,15.20
2018-04-14T10:00:26.417Z,15.10
2018-04-14T10:03:27.792Z,14.90
2018-04-14T10:06:29.117Z,15.10
2018-04-14T10:09:30.523Z,14.90
2018-04-14T10:12:31.958Z,15.00
2018-04-14T10:15:33.325Z,15.00
2018-04-14T10:18:34.695Z,15.10
2018-04-14T10:21:36.091Z,15.10
2018-04-14T10:24:38.217Z,14.90
2018-04-14T10:27:39.629Z,14.90
2018-04-14T10:30:41.035Z,15.00
2018-04-14T10:33:42.393Z,15.10
2018-04-14T10:36:44.465Z,15.30
2018-04-14T10:39:46.597Z,15.30
2018-04-14T10:42:48.004Z,15.30
2018-04-14T10:45:49.342Z,15.30
2018-04-14T10:48:50.754Z,15.50
2018-04-14T10:51:52.126Z,15.60
2018-04-14T10:54:53.505Z,15.60
2018-04-14T10:57:54.913Z,16.20
2018-04-14T11:00:56.308Z,16.10
2018-04-14T11:03:58.419Z,15.50
2018-04-14T11:06:59.792Z,15.60
2018-04-14T11:10:01.140Z,15.30
2018-04-14T11:13:03.260Z,15.90
2018-04-14T11:16:04.634Z,15.80
2018-04-14T11:19:06.008Z,15.90
2018-04-14T11:22:07.371Z,15.70
2018-04-14T11:25:08.752Z,15.80
2018-04-14T11:28:10.136Z,16.20
2018-04-14T11:31:12.246Z,17.20
2018-04-14T11:34:13.614Z,17.00
2018-04-14T11:37:15.008Z,17.60
2018-04-14T11:40:16.343Z,17.70
2018-04-14T11:43:17.761Z,17.40
2018-04-14T11:46:19.210Z,17.40
2018-04-14T11:49:20.640Z,17.10
2018-04-14T11:52:22.056Z,17.00
2018-04-14T11:55:23.438Z,17.10
2018-04-14T11:58:25.557Z,17.20
2018-04-14T12:01:27.794Z,17.10
2018-04-14T12:04:29.222Z,17.20
2018-04-14T12:07:30.624Z,17.30
2018-04-14T12:10:31.989Z,17.40
2018-04-14T12:13:33.377Z,17.80
2018-04-14T12:16:34.746Z,18.10
2018-04-14T12:19:36.149Z,18.20
2018-04-14T12:22:37.564Z,18.20
2018-04-14T12:25:38.960Z,18.20
2018-04-14T12:28:41.096Z,17.80
2018-04-14T12:31:42.475Z,17.80
2018-04-14T12:34:43.841Z,17.50
2018-04-14T12:37:45.227Z,17.10
2018-04-14T12:40:46.624Z,17.30
2018-04-14T12:43:47.995Z,17.90
2018-04-14T12:46:49.380Z,17.80
2018-04-14T12:49:50.849Z,17.50
2018-04-14T12:52:52.274Z,17.90
2018-04-14T12:55:54.437Z,19.20
2018-04-14T12:58:55.837Z,19.10
2018-04-14T13:01:57.300Z,19.10
2018-04-14T13:04:58.677Z,19.50
2018-04-14T13:08:00.104Z,19.30
2018-04-14T13:11:01.529Z,19.00
2018-04-14T13:14:02.914Z,18.90
2018-04-14T13:17:04.366Z,19.10
2018-04-14T13:20:05.794Z,19.50
2018-04-14T13:23:07.902Z,19.70
2018-04-14T13:26:09.342Z,19.70
2018-04-14T13:29:11.454Z,20.20
2018-04-14T13:32:12.835Z,20.20
2018-04-14T13:35:14.230Z,19.80
2018-04-14T13:38:15.586Z,19.40
2018-04-14T13:44:25.078Z,19.10
2018-04-14T13:47:26.473Z,19.20
2018-04-14T13:50:28.605Z,19.20
2018-04-14T13:53:30.002Z,19.20
2018-04-14T13:56:31.392Z,19.30
2018-04-14T13:59:33.506Z,19.50
2018-04-14T14:02:34.985Z,19.40
2018-04-14T14:05:36.432Z,19.50
2018-04-14T14:08:37.918Z,19.90
2018-04-14T14:11:39.317Z,19.90
2018-04-14T14:14:40.783Z,19.90
2018-04-14T14:17:42.185Z,19.90
2018-04-14T14:20:44.310Z,20.60
2018-04-14T14:23:45.702Z,20.60
2018-04-14T14:26:47.145Z,20.50
2018-04-14T14:29:48.552Z,20.50
2018-04-14T14:32:49.960Z,20.40
2018-04-14T14:35:51.384Z,20.30
2018-04-14T14:38:52.810Z,20.20
2018-04-14T14:41:54.183Z,20.00
2018-04-14T14:44:55.610Z,20.10
2018-04-14T14:47:56.998Z,19.90
2018-04-14T14:50:58.455Z,20.20
2018-04-14T14:53:59.852Z,20.20
2018-04-14T14:57:01.259Z,20.20
2018-04-14T15:00:02.699Z,20.20
2018-04-14T15:03:04.217Z,20.10
2018-04-14T15:06:05.616Z,20.10
2018-04-14T15:09:07.064Z,20.20
2018-04-14T15:12:08.432Z,20.10
2018-04-14T15:15:09.860Z,20.00
2018-04-14T15:18:11.249Z,19.90
2018-04-14T15:21:13.353Z,19.50
2018-04-14T15:24:14.764Z,19.30
2018-04-14T15:27:16.207Z,19.60
2018-04-14T15:30:17.576Z,19.30
2018-04-14T15:33:18.976Z,19.30
2018-04-14T15:36:20.351Z,19.10
2018-04-14T15:39:22.480Z,18.80
2018-04-14T15:42:23.833Z,18.80
2018-04-14T15:45:25.221Z,18.60
2018-04-14T15:48:26.629Z,18.50
2018-04-14T15:51:28.026Z,18.40
2018-04-14T15:54:29.357Z,18.40
2018-04-14T15:57:30.753Z,18.20
2018-04-14T16:00:32.112Z,18.40
2018-04-14T16:03:34.222Z,18.70
2018-04-14T16:06:35.565Z,18.70
2018-04-14T16:09:37.007Z,19.00
2018-04-14T16:12:39.111Z,19.10
2018-04-14T16:15:40.472Z,19.10
2018-04-14T16:18:42.597Z,19.00
2018-04-14T16:21:43.967Z,19.00
2018-04-14T16:24:45.305Z,19.10
2018-04-14T16:27:46.678Z,18.90
2018-04-14T16:30:48.070Z,18.80
2018-04-14T16:33:49.456Z,18.60
2018-04-14T16:36:50.802Z,18.50
2018-04-14T16:39:52.201Z,18.20
2018-04-14T16:42:53.586Z,18.10
2018-04-14T16:45:54.933Z,18.30
2018-04-14T16:48:57.038Z,18.20
2018-04-14T16:51:58.424Z,18.30
2018-04-14T16:54:59.845Z,18.20
2018-04-14T16:58:01.936Z,18.00
2018-04-14T17:01:04.079Z,17.90
2018-04-14T17:04:05.484Z,17.90
2018-04-14T17:07:07.573Z,17.80
2018-04-14T17:10:09.667Z,17.70
2018-04-14T17:13:11.788Z,17.60
2018-04-14T17:16:13.100Z,17.60
2018-04-14T17:19:15.154Z,17.50
2018-04-14T17:22:16.520Z,17.50
2018-04-14T17:25:17.919Z,17.50
2018-04-14T17:28:19.257Z,17.50
2018-04-14T17:31:20.630Z,17.40
2018-04-14T17:34:21.950Z,17.40
2018-04-14T17:37:23.305Z,17.40
2018-04-14T17:40:24.674Z,17.40
2018-04-14T17:43:26.029Z,17.20
2018-04-14T17:46:27.403Z,17.20
2018-04-14T17:49:28.755Z,17.10
2018-04-14T17:52:30.855Z,17.20
2018-04-14T17:55:32.215Z,17.20
2018-04-14T17:58:33.978Z,17.30
2018-04-14T18:01:36.039Z,17.10
2018-04-14T18:04:38.139Z,17.00
2018-04-14T18:07:40.249Z,17.00
2018-04-14T18:10:41.617Z,17.20
2018-04-14T18:13:42.944Z,17.00
2018-04-14T18:16:45.037Z,17.00
2018-04-14T18:19:47.125Z,16.90
2018-04-14T18:22:48.444Z,17.00
2018-04-14T18:25:49.755Z,17.00
2018-04-14T18:28:51.115Z,17.00
2018-04-14T18:31:53.181Z,16.90
2018-04-14T18:34:55.276Z,16.90
2018-04-14T18:37:57.363Z,16.90
2018-04-14T18:40:59.424Z,16.80
2018-04-14T18:44:01.527Z,16.80
2018-04-14T18:47:02.906Z,16.60
2018-04-14T18:50:04.268Z,16.70
2018-04-14T18:53:05.584Z,16.60
2018-04-14T18:56:06.911Z,16.90
2018-04-14T18:59:08.251Z,16.70
2018-04-14T19:02:10.335Z,16.60
2018-04-14T19:05:11.730Z,16.50
2018-04-14T19:08:13.048Z,16.40
2018-04-14T19:11:15.093Z,16.50
2018-04-14T19:14:16.383Z,16.50
2018-04-14T19:17:17.705Z,16.40
2018-04-14T19:20:19.205Z,16.30
2018-04-14T19:23:20.743Z,16.40
2018-04-14T19:26:22.072Z,16.20
2018-04-14T19:29:24.123Z,16.40
2018-04-14T19:32:26.050Z,16.40
2018-04-14T19:35:27.403Z,16.40
2018-04-14T19:38:29.440Z,16.30
2018-04-14T19:41:30.841Z,16.30
2018-04-14T19:44:32.162Z,16.20
2018-04-14T19:47:33.604Z,16.40
2018-04-14T19:50:34.917Z,16.20
2018-04-14T19:53:36.265Z,15.90
2018-04-14T19:56:37.601Z,15.90
2018-04-14T19:59:38.985Z,15.90
2018-04-14T20:02:40.282Z,16.10
2018-04-14T20:05:41.627Z,16.00
2018-04-14T20:08:42.943Z,15.90
2018-04-14T20:11:44.254Z,15.80
2018-04-14T20:14:45.542Z,15.80
2018-04-14T20:17:46.890Z,15.70
2018-04-14T20:20:48.215Z,15.50
2018-04-14T20:23:49.586Z,15.70
2018-04-14T20:26:50.873Z,15.40
2018-04-14T20:29:52.205Z,15.60
2018-04-14T20:32:53.656Z,15.60
2018-04-14T20:35:55.838Z,15.60
2018-04-14T20:38:58.291Z,15.50
2018-04-14T20:41:59.782Z,15.60
2018-04-14T20:45:01.081Z,15.50
2018-04-14T20:48:02.446Z,15.60
2018-04-14T20:51:03.741Z,15.60
2018-04-14T20:54:05.061Z,15.60
2018-04-14T20:57:07.076Z,15.60
2018-04-14T21:00:08.425Z,15.60
2018-04-14T21:03:09.684Z,15.70
2018-04-14T21:06:11.104Z,15.70
2018-04-14T21:09:12.466Z,15.70
2018-04-14T21:12:13.769Z,15.90
2018-04-14T21:15:15.797Z,15.80
2018-04-14T21:18:17.146Z,15.80
2018-04-14T21:21:18.538Z,15.90
2018-04-14T21:24:20.045Z,15.90
2018-04-14T21:27:22.378Z,15.80
2018-04-14T21:30:23.734Z,15.80
2018-04-14T21:33:25.032Z,15.70
2018-04-14T21:36:26.346Z,15.70
2018-04-14T21:39:27.708Z,15.80
2018-04-14T21:42:28.979Z,15.80
2018-04-14T21:45:30.410Z,15.80
2018-04-14T21:48:31.758Z,15.80
2018-04-14T21:51:33.083Z,15.70
2018-04-14T21:54:34.852Z,15.70
2018-04-14T21:57:36.281Z,15.70
2018-04-14T22:00:37.634Z,15.70
2018-04-14T22:03:38.909Z,15.60
2018-04-14T22:06:40.202Z,15.60
2018-04-14T22:09:41.491Z,15.60
2018-04-14T22:12:42.863Z,15.50
2018-04-14T22:15:44.875Z,15.50
2018-04-14T22:18:46.187Z,15.60
2018-04-14T22:21:47.505Z,15.50
2018-04-14T22:24:49.044Z,15.40
2018-04-14T22:27:50.782Z,15.40
2018-04-14T22:30:52.887Z,15.20
2018-04-14T22:33:54.199Z,15.20
2018-04-14T22:36:55.539Z,15.20
2018-04-14T22:39:56.883Z,15.00
2018-04-14T22:42:58.220Z,15.10
2018-04-14T22:46:00.267Z,15.00
2018-04-14T22:49:01.638Z,15.00
2018-04-14T22:52:02.952Z,15.10
2018-04-14T22:55:04.350Z,14.90
2018-04-14T22:58:05.723Z,15.00
2018-04-14T23:01:07.085Z,14.80
2018-04-14T23:04:08.398Z,15.00
2018-04-14T23:07:09.684Z,14.90
2018-04-14T23:10:10.997Z,14.80
2018-04-14T23:13:12.289Z,14.80
2018-04-14T23:16:14.362Z,14.80
2018-04-14T23:19:16.380Z,14.90
2018-04-14T23:22:17.683Z,15.00
2018-04-14T23:25:19.332Z,14.80
2018-04-14T23:28:20.761Z,14.60
2018-04-14T23:31:22.845Z,14.80
2018-04-14T23:34:24.743Z,14.70
2018-04-14T23:37:26.041Z,14.70
2018-04-14T23:40:27.361Z,14.60
2018-04-14T23:43:28.660Z,14.50
2018-04-14T23:46:30.084Z,14.70
2018-04-14T23:49:31.393Z,14.80
2018-04-14T23:52:34.210Z,14.80
2018-04-14T23:55:35.754Z,14.80
2018-04-14T23:58:37.085Z,14.80
